createdAt,value
2018-10-15T00:00:58.362Z,1012.42
2018-10-15T00:01:58.335Z,1012.44
2018-10-15T00:02:58.310Z,1012.40
2018-10-15T00:03:58.281Z,1012.38
2018-10-15T00:04:58.252Z,1012.39
2018-10-15T00:05:58.228Z,1012.35
2018-10-15T00:06:58.197Z,1012.39
2018-10-15T00:07:58.168Z,1012.38
2018-10-15T00:08:58.143Z,1012.37
2018-10-15T00:09:58.114Z,1012.35
2018-10-15T00:10:58.086Z,1012.37
2018-10-15T00:11:58.057Z,1012.43
2018-10-15T00:12:58.031Z,1012.38
2018-10-15T00:13:58.004Z,1012.45
2018-10-15T00:14:57.976Z,1012.47
2018-10-15T00:15:57.946Z,1012.46
2018-10-15T00:16:57.918Z,1012.46
2018-10-15T00:17:57.892Z,1012.45
2018-10-15T00:18:57.864Z,1012.44
2018-10-15T00:19:57.836Z,1012.44
2018-10-15T00:20:57.808Z,1012.45
2018-10-15T00:21:57.782Z,1012.47
2018-10-15T00:22:57.753Z,1012.45
2018-10-15T00:23:57.725Z,1012.46
2018-10-15T00:24:57.697Z,1012.43
2018-10-15T00:25:57.669Z,1012.43
2018-10-15T00:26:57.643Z,1012.45
2018-10-15T00:27:57.614Z,1012.51
2018-10-15T00:28:57.587Z,1012.44
2018-10-15T00:29:57.560Z,1012.46
2018-10-15T00:30:57.534Z,1012.47
2018-10-15T00:31:57.503Z,1012.45
2018-10-15T00:32:57.475Z,1012.45
2018-10-15T00:33:57.449Z,1012.47
2018-10-15T00:34:57.420Z,1012.44
2018-10-15T00:35:57.390Z,1012.45
2018-10-15T00:36:57.364Z,1012.46
2018-10-15T00:37:57.337Z,1012.45
2018-10-15T00:38:57.310Z,1012.46
2018-10-15T00:39:57.281Z,1012.45
2018-10-15T00:40:57.252Z,1012.50
2018-10-15T00:41:57.226Z,1012.52
2018-10-15T00:42:57.198Z,1012.52
2018-10-15T00:43:57.172Z,1012.51
2018-10-15T00:44:57.141Z,1012.49
2018-10-15T00:45:57.113Z,1012.53
2018-10-15T00:46:57.086Z,1012.56
2018-10-15T00:47:57.062Z,1012.58
2018-10-15T00:48:57.030Z,1012.53
2018-10-15T00:49:57.003Z,1012.58
2018-10-15T00:50:56.974Z,1012.56
2018-10-15T00:51:56.945Z,1012.57
2018-10-15T00:52:56.917Z,1012.59
2018-10-15T00:53:56.889Z,1012.60
2018-10-15T00:54:56.862Z,1012.54
2018-10-15T00:55:56.833Z,1012.54
2018-10-15T00:56:56.805Z,1012.57
2018-10-15T00:57:56.777Z,1012.55
2018-10-15T00:58:56.751Z,1012.55
2018-10-15T00:59:56.720Z,1012.55
2018-10-15T01:00:56.692Z,1012.56
2018-10-15T01:01:56.664Z,1012.60
2018-10-15T01:02:56.638Z,1012.58
2018-10-15T01:03:56.684Z,1012.60
2018-10-15T01:04:56.579Z,1012.56
2018-10-15T01:05:56.555Z,1012.54
2018-10-15T01:06:56.526Z,1012.48
2018-10-15T01:07:56.497Z,1012.46
2018-10-15T01:08:56.470Z,1012.45
2018-10-15T01:09:56.440Z,1012.44
2018-10-15T01:10:56.415Z,1012.41
2018-10-15T01:11:56.383Z,1012.39
2018-10-15T01:12:56.360Z,1012.38
2018-10-15T01:13:56.330Z,1012.37
2018-10-15T01:14:56.302Z,1012.38
2018-10-15T01:15:56.275Z,1012.38
2018-10-15T01:16:56.245Z,1012.38
2018-10-15T01:17:56.216Z,1012.35
2018-10-15T01:18:56.188Z,1012.35
2018-10-15T01:19:56.159Z,1012.37
2018-10-15T01:20:56.131Z,1012.31
2018-10-15T01:21:56.103Z,1012.32
2018-10-15T01:22:56.076Z,1012.33
2018-10-15T01:23:56.048Z,1012.30
2018-10-15T01:24:56.018Z,1012.35
2018-10-15T01:25:55.992Z,1012.32
2018-10-15T01:26:55.963Z,1012.37
2018-10-15T01:27:55.934Z,1012.41
2018-10-15T01:28:55.905Z,1012.41
2018-10-15T01:29:55.879Z,1012.42
2018-10-15T01:30:55.852Z,1012.42
2018-10-15T01:31:55.822Z,1012.41
2018-10-15T01:32:55.794Z,1012.44
2018-10-15T01:33:55.766Z,1012.44
2018-10-15T01:34:55.738Z,1012.46
2018-10-15T01:35:55.712Z,1012.50
2018-10-15T01:36:55.681Z,1012.52
2018-10-15T01:37:55.654Z,1012.53
2018-10-15T01:38:55.624Z,1012.54
2018-10-15T01:39:55.597Z,1012.53
2018-10-15T01:40:55.569Z,1012.55
2018-10-15T01:41:55.539Z,1012.59
2018-10-15T01:42:55.511Z,1012.56
2018-10-15T01:43:55.484Z,1012.57
2018-10-15T01:44:55.455Z,1012.57
2018-10-15T01:45:55.428Z,1012.59
2018-10-15T01:46:55.401Z,1012.58
2018-10-15T01:47:55.370Z,1012.56
2018-10-15T01:48:55.342Z,1012.57
2018-10-15T01:49:55.316Z,1012.56
2018-10-15T01:50:55.285Z,1012.60
2018-10-15T01:51:55.258Z,1012.53
2018-10-15T01:52:55.228Z,1012.55
2018-10-15T01:53:55.202Z,1012.54
2018-10-15T01:54:55.173Z,1012.54
2018-10-15T01:55:55.145Z,1012.50
2018-10-15T01:56:55.115Z,1012.48
2018-10-15T01:57:55.088Z,1012.47
2018-10-15T01:58:55.060Z,1012.49
2018-10-15T01:59:55.030Z,1012.50
2018-10-15T02:00:55.002Z,1012.50
2018-10-15T02:01:54.975Z,1012.45
2018-10-15T02:02:54.946Z,1012.47
2018-10-15T02:03:54.918Z,1012.49
2018-10-15T02:04:54.890Z,1012.49
2018-10-15T02:05:54.861Z,1012.50
2018-10-15T02:06:54.834Z,1012.51
2018-10-15T02:07:54.804Z,1012.50
2018-10-15T02:08:54.776Z,1012.50
2018-10-15T02:09:54.747Z,1012.57
2018-10-15T02:10:54.720Z,1012.54
2018-10-15T02:11:54.689Z,1012.57
2018-10-15T02:12:54.662Z,1012.55
2018-10-15T02:13:54.633Z,1012.60
2018-10-15T02:14:54.605Z,1012.57
2018-10-15T02:15:54.577Z,1012.58
2018-10-15T02:16:54.549Z,1012.55
2018-10-15T02:17:54.520Z,1012.52
2018-10-15T02:18:54.493Z,1012.53
2018-10-15T02:19:54.464Z,1012.53
2018-10-15T02:20:54.434Z,1012.50
2018-10-15T02:21:54.407Z,1012.52
2018-10-15T02:22:54.379Z,1012.47
2018-10-15T02:23:54.350Z,1012.49
2018-10-15T02:24:54.320Z,1012.49
2018-10-15T02:25:54.293Z,1012.49
2018-10-15T02:26:54.263Z,1012.50
2018-10-15T02:27:54.233Z,1012.46
2018-10-15T02:28:54.207Z,1012.50
2018-10-15T02:29:54.178Z,1012.49
2018-10-15T02:30:54.150Z,1012.50
2018-10-15T02:31:54.120Z,1012.54
2018-10-15T02:32:54.092Z,1012.59
2018-10-15T02:33:54.065Z,1012.60
2018-10-15T02:34:54.037Z,1012.59
2018-10-15T02:35:54.008Z,1012.60
2018-10-15T02:36:53.979Z,1012.61
2018-10-15T02:37:53.950Z,1012.62
2018-10-15T02:38:53.923Z,1012.59
2018-10-15T02:39:53.893Z,1012.58
2018-10-15T02:40:53.865Z,1012.62
2018-10-15T02:41:53.837Z,1012.56
2018-10-15T02:42:53.809Z,1012.55
2018-10-15T02:43:53.778Z,1012.56
2018-10-15T02:44:53.752Z,1012.53
2018-10-15T02:45:53.722Z,1012.52
2018-10-15T02:46:53.694Z,1012.48
2018-10-15T02:47:53.664Z,1012.50
2018-10-15T02:48:53.638Z,1012.52
2018-10-15T02:49:53.609Z,1012.51
2018-10-15T02:50:53.581Z,1012.50
2018-10-15T02:51:53.558Z,1012.46
2018-10-15T02:52:53.523Z,1012.45
2018-10-15T02:53:53.495Z,1012.46
2018-10-15T02:54:53.466Z,1012.49
2018-10-15T02:55:53.436Z,1012.48
2018-10-15T02:56:53.408Z,1012.46
2018-10-15T02:57:53.381Z,1012.46
2018-10-15T02:58:53.350Z,1012.46
2018-10-15T02:59:53.321Z,1012.48
2018-10-15T03:00:53.292Z,1012.50
2018-10-15T03:01:53.264Z,1012.48
2018-10-15T03:02:53.240Z,1012.49
2018-10-15T03:03:53.209Z,1012.53
2018-10-15T03:04:53.179Z,1012.51
2018-10-15T03:05:53.155Z,1012.49
2018-10-15T03:06:53.121Z,1012.50
2018-10-15T03:07:53.093Z,1012.51
2018-10-15T03:08:53.064Z,1012.50
2018-10-15T03:09:53.036Z,1012.50
2018-10-15T03:10:53.008Z,1012.46
2018-10-15T03:11:52.979Z,1012.49
2018-10-15T03:12:52.950Z,1012.48
2018-10-15T03:13:52.921Z,1012.49
2018-10-15T03:14:52.897Z,1012.47
2018-10-15T03:15:52.864Z,1012.49
2018-10-15T03:16:52.838Z,1012.50
2018-10-15T03:17:52.807Z,1012.47
2018-10-15T03:18:52.782Z,1012.49
2018-10-15T03:19:52.793Z,1012.54
2018-10-15T03:20:52.721Z,1012.59
2018-10-15T03:21:52.693Z,1012.60
2018-10-15T03:22:52.664Z,1012.58
2018-10-15T03:23:52.634Z,1012.56
2018-10-15T03:24:52.605Z,1012.61
2018-10-15T03:25:52.581Z,1012.59
2018-10-15T03:26:52.549Z,1012.58
2018-10-15T03:27:52.519Z,1012.61
2018-10-15T03:28:52.490Z,1012.60
2018-10-15T03:29:52.462Z,1012.59
2018-10-15T03:30:52.434Z,1012.60
2018-10-15T03:31:52.405Z,1012.57
2018-10-15T03:32:52.375Z,1012.62
2018-10-15T03:33:52.348Z,1012.58
2018-10-15T03:34:52.319Z,1012.59
2018-10-15T03:35:52.289Z,1012.59
2018-10-15T03:36:52.260Z,1012.54
2018-10-15T03:37:52.232Z,1012.56
2018-10-15T03:38:52.205Z,1012.56
2018-10-15T03:39:52.175Z,1012.57
2018-10-15T03:40:52.148Z,1012.57
2018-10-15T03:41:52.117Z,1012.59
2018-10-15T03:42:52.092Z,1012.57
2018-10-15T03:43:52.058Z,1012.55
2018-10-15T03:44:52.030Z,1012.58
2018-10-15T03:45:52.001Z,1012.53
2018-10-15T03:46:51.979Z,1012.58
2018-10-15T03:47:51.944Z,1012.60
2018-10-15T03:48:51.916Z,1012.60
2018-10-15T03:49:51.889Z,1012.64
2018-10-15T03:50:51.859Z,1012.65
2018-10-15T03:51:51.828Z,1012.67
2018-10-15T03:52:51.801Z,1012.69
2018-10-15T03:53:51.771Z,1012.70
2018-10-15T03:54:51.743Z,1012.69
2018-10-15T03:55:51.714Z,1012.64
2018-10-15T03:56:51.696Z,1012.65
2018-10-15T03:57:51.656Z,1012.69
2018-10-15T03:58:51.627Z,1012.69
2018-10-15T03:59:51.601Z,1012.72
2018-10-15T04:00:51.571Z,1012.70
2018-10-15T04:01:51.542Z,1012.75
2018-10-15T04:02:51.513Z,1012.73
2018-10-15T04:03:51.499Z,1012.77
2018-10-15T04:04:51.454Z,1012.79
2018-10-15T04:05:51.427Z,1012.77
2018-10-15T04:06:51.397Z,1012.80
2018-10-15T04:07:51.368Z,1012.80
2018-10-15T04:08:51.340Z,1012.76
2018-10-15T04:09:51.309Z,1012.75
2018-10-15T04:10:51.281Z,1012.71
2018-10-15T04:11:51.252Z,1012.68
2018-10-15T04:12:51.225Z,1012.71
2018-10-15T04:13:51.194Z,1012.71
2018-10-15T04:14:51.164Z,1012.69
2018-10-15T04:15:51.136Z,1012.72
2018-10-15T04:16:51.107Z,1012.71
2018-10-15T04:17:51.078Z,1012.71
2018-10-15T04:18:51.053Z,1012.69
2018-10-15T04:19:51.020Z,1012.65
2018-10-15T04:20:50.992Z,1012.64
2018-10-15T04:21:50.965Z,1012.63
2018-10-15T04:22:50.933Z,1012.65
2018-10-15T04:23:50.904Z,1012.63
2018-10-15T04:24:50.876Z,1012.68
2018-10-15T04:25:50.847Z,1012.69
2018-10-15T04:26:50.820Z,1012.67
2018-10-15T04:27:50.788Z,1012.67
2018-10-15T04:28:50.763Z,1012.70
2018-10-15T04:29:50.730Z,1012.67
2018-10-15T04:30:50.703Z,1012.71
2018-10-15T04:31:50.672Z,1012.74
2018-10-15T04:32:50.644Z,1012.72
2018-10-15T04:33:50.616Z,1012.73
2018-10-15T04:34:50.587Z,1012.70
2018-10-15T04:35:50.557Z,1012.71
2018-10-15T04:36:50.528Z,1012.71
2018-10-15T04:37:50.592Z,1012.70
2018-10-15T04:38:50.471Z,1012.70
2018-10-15T04:39:50.439Z,1012.73
2018-10-15T04:40:50.412Z,1012.72
2018-10-15T04:41:50.384Z,1012.74
2018-10-15T04:42:50.359Z,1012.74
2018-10-15T04:43:50.325Z,1012.77
2018-10-15T04:44:50.297Z,1012.78
2018-10-15T04:45:50.267Z,1012.82
2018-10-15T04:46:50.245Z,1012.83
2018-10-15T04:47:50.208Z,1012.84
2018-10-15T04:48:50.265Z,1012.84
2018-10-15T04:49:50.177Z,1012.84
2018-10-15T04:50:50.127Z,1012.80
2018-10-15T04:51:50.094Z,1012.82
2018-10-15T04:52:50.063Z,1012.78
2018-10-15T04:53:50.035Z,1012.81
2018-10-15T04:54:50.007Z,1012.77
2018-10-15T04:55:49.976Z,1012.81
2018-10-15T04:56:49.948Z,1012.81
2018-10-15T04:57:49.927Z,1012.82
2018-10-15T04:58:49.891Z,1012.79
2018-10-15T04:59:49.860Z,1012.81
2018-10-15T05:00:49.833Z,1012.80
2018-10-15T05:01:49.803Z,1012.80
2018-10-15T05:02:49.773Z,1012.80
2018-10-15T05:03:49.744Z,1012.81
2018-10-15T05:04:49.716Z,1012.80
2018-10-15T05:05:49.686Z,1012.84
2018-10-15T05:06:49.659Z,1012.88
2018-10-15T05:07:49.630Z,1012.88
2018-10-15T05:08:49.604Z,1012.88
2018-10-15T05:09:49.571Z,1012.96
2018-10-15T05:10:49.542Z,1012.97
2018-10-15T05:11:49.513Z,1012.97
2018-10-15T05:12:49.485Z,1012.94
2018-10-15T05:13:49.457Z,1012.98
2018-10-15T05:14:49.433Z,1012.93
2018-10-15T05:15:49.396Z,1012.98
2018-10-15T05:16:49.376Z,1012.93
2018-10-15T05:17:49.339Z,1012.94
2018-10-15T05:18:49.310Z,1012.94
2018-10-15T05:19:49.280Z,1012.90
2018-10-15T05:20:49.328Z,1012.88
2018-10-15T05:21:49.222Z,1012.90
2018-10-15T05:22:49.192Z,1012.88
2018-10-15T05:23:49.164Z,1012.91
2018-10-15T05:24:49.134Z,1012.90
2018-10-15T05:25:49.105Z,1012.92
2018-10-15T05:26:49.076Z,1012.97
2018-10-15T05:27:49.045Z,1013.00
2018-10-15T05:28:49.019Z,1013.07
2018-10-15T05:29:48.988Z,1013.09
2018-10-15T05:30:49.000Z,1013.09
2018-10-15T05:31:48.929Z,1013.09
2018-10-15T05:32:48.901Z,1013.07
2018-10-15T05:33:48.872Z,1013.09
2018-10-15T05:34:48.844Z,1013.11
2018-10-15T05:35:48.812Z,1013.15
2018-10-15T05:36:48.879Z,1013.16
2018-10-15T05:37:48.754Z,1013.14
2018-10-15T05:38:48.726Z,1013.16
2018-10-15T05:39:48.695Z,1013.14
2018-10-15T05:40:48.666Z,1013.20
2018-10-15T05:41:48.638Z,1013.21
2018-10-15T05:42:48.609Z,1013.21
2018-10-15T05:43:48.578Z,1013.21
2018-10-15T05:44:48.549Z,1013.24
2018-10-15T05:45:48.521Z,1013.25
2018-10-15T05:46:48.545Z,1013.25
2018-10-15T05:47:48.466Z,1013.25
2018-10-15T05:48:48.433Z,1013.25
2018-10-15T05:49:48.403Z,1013.25
2018-10-15T05:50:48.375Z,1013.29
2018-10-15T05:51:48.344Z,1013.29
2018-10-15T05:52:48.318Z,1013.25
2018-10-15T05:53:48.287Z,1013.28
2018-10-15T05:54:48.261Z,1013.26
2018-10-15T05:55:48.228Z,1013.24
2018-10-15T05:56:48.198Z,1013.22
2018-10-15T05:57:48.170Z,1013.27
2018-10-15T05:58:48.142Z,1013.25
2018-10-15T05:59:48.112Z,1013.26
2018-10-15T06:00:48.083Z,1013.26
2018-10-15T06:01:48.054Z,1013.30
2018-10-15T06:02:48.025Z,1013.28
2018-10-15T06:03:47.996Z,1013.30
2018-10-15T06:04:47.966Z,1013.35
2018-10-15T06:05:47.935Z,1013.33
2018-10-15T06:06:47.908Z,1013.37
2018-10-15T06:07:47.876Z,1013.36
2018-10-15T06:08:47.848Z,1013.37
2018-10-15T06:09:47.821Z,1013.42
2018-10-15T06:10:47.791Z,1013.36
2018-10-15T06:11:47.761Z,1013.38
2018-10-15T06:12:47.735Z,1013.36
2018-10-15T06:13:47.702Z,1013.36
2018-10-15T06:14:47.674Z,1013.39
2018-10-15T06:15:47.644Z,1013.41
2018-10-15T06:16:47.615Z,1013.40
2018-10-15T06:17:47.586Z,1013.46
2018-10-15T06:18:47.560Z,1013.45
2018-10-15T06:19:47.527Z,1013.45
2018-10-15T06:20:47.499Z,1013.50
2018-10-15T06:21:47.475Z,1013.51
2018-10-15T06:22:47.573Z,1013.59
2018-10-15T06:23:47.410Z,1013.59
2018-10-15T06:24:47.382Z,1013.64
2018-10-15T06:25:47.353Z,1013.58
2018-10-15T06:26:47.324Z,1013.59
2018-10-15T06:27:47.299Z,1013.55
2018-10-15T06:28:47.266Z,1013.59
2018-10-15T06:29:47.238Z,1013.58
2018-10-15T06:30:47.209Z,1013.60
2018-10-15T06:31:47.180Z,1013.54
2018-10-15T06:32:47.152Z,1013.57
2018-10-15T06:33:47.175Z,1013.57
2018-10-15T06:34:47.093Z,1013.57
2018-10-15T06:35:47.067Z,1013.56
2018-10-15T06:36:47.040Z,1013.58
2018-10-15T06:37:47.010Z,1013.60
2018-10-15T06:38:46.980Z,1013.61
2018-10-15T06:39:46.952Z,1013.61
2018-10-15T06:40:46.924Z,1013.59
2018-10-15T06:41:46.897Z,1013.61
2018-10-15T06:42:46.871Z,1013.62
2018-10-15T06:43:46.859Z,1013.61
2018-10-15T06:44:46.814Z,1013.60
2018-10-15T06:45:46.785Z,1013.58
2018-10-15T06:46:46.755Z,1013.56
2018-10-15T06:47:46.728Z,1013.54
2018-10-15T06:48:46.699Z,1013.50
2018-10-15T06:49:46.673Z,1013.47
2018-10-15T06:50:46.683Z,1013.42
2018-10-15T06:51:46.617Z,1013.45
2018-10-15T06:52:46.590Z,1013.43
2018-10-15T06:53:46.632Z,1013.44
2018-10-15T06:54:46.535Z,1013.42
2018-10-15T06:55:46.506Z,1013.40
2018-10-15T06:56:46.479Z,1013.37
2018-10-15T06:57:46.452Z,1013.36
2018-10-15T06:58:46.426Z,1013.41
2018-10-15T06:59:46.398Z,1013.42
2018-10-15T07:00:46.375Z,1013.42
2018-10-15T07:01:46.345Z,1013.46
2018-10-15T07:02:46.318Z,1013.46
2018-10-15T07:03:46.286Z,1013.45
2018-10-15T07:04:46.259Z,1013.47
2018-10-15T07:05:46.233Z,1013.48
2018-10-15T07:06:46.207Z,1013.46
2018-10-15T07:07:46.213Z,1013.49
2018-10-15T07:08:46.158Z,1013.46
2018-10-15T07:09:46.127Z,1013.45
2018-10-15T07:10:46.099Z,1013.38
2018-10-15T07:11:46.071Z,1013.42
2018-10-15T07:12:46.043Z,1013.41
2018-10-15T07:13:46.109Z,1013.39
2018-10-15T07:14:46.082Z,1013.40
2018-10-15T07:15:45.964Z,1013.41
2018-10-15T07:16:45.940Z,1013.38
2018-10-15T07:17:45.912Z,1013.40
2018-10-15T07:18:45.883Z,1013.38
2018-10-15T07:19:45.856Z,1013.43
2018-10-15T07:20:45.907Z,1013.40
2018-10-15T07:21:45.802Z,1013.46
2018-10-15T07:22:45.776Z,1013.43
2018-10-15T07:23:45.747Z,1013.45
2018-10-15T07:24:45.723Z,1013.46
2018-10-15T07:25:45.697Z,1013.54
2018-10-15T07:26:45.671Z,1013.54
2018-10-15T07:27:45.694Z,1013.52
2018-10-15T07:28:45.621Z,1013.57
2018-10-15T07:29:45.594Z,1013.54
2018-10-15T07:30:45.567Z,1013.49
2018-10-15T07:31:45.540Z,1013.52
2018-10-15T07:32:45.515Z,1013.49
2018-10-15T07:33:45.591Z,1013.43
2018-10-15T07:34:45.464Z,1013.46
2018-10-15T07:35:45.439Z,1013.42
2018-10-15T07:36:45.414Z,1013.45
2018-10-15T07:37:45.386Z,1013.41
2018-10-15T07:38:45.364Z,1013.40
2018-10-15T07:39:45.416Z,1013.40
2018-10-15T07:40:45.313Z,1013.38
2018-10-15T07:41:45.288Z,1013.37
2018-10-15T07:42:45.265Z,1013.35
2018-10-15T07:43:45.239Z,1013.35
2018-10-15T07:44:45.221Z,1013.35
2018-10-15T07:45:45.193Z,1013.38
2018-10-15T07:46:45.313Z,1013.36
2018-10-15T07:47:45.145Z,1013.37
2018-10-15T07:48:45.124Z,1013.39
2018-10-15T07:49:45.100Z,1013.40
2018-10-15T07:50:45.077Z,1013.43
2018-10-15T07:51:45.055Z,1013.42
2018-10-15T07:52:45.033Z,1013.42
2018-10-15T07:53:45.010Z,1013.42
2018-10-15T07:54:44.989Z,1013.45
2018-10-15T07:55:44.968Z,1013.51
2018-10-15T07:56:44.946Z,1013.54
2018-10-15T07:57:44.923Z,1013.59
2018-10-15T07:58:44.902Z,1013.64
2018-10-15T07:59:44.880Z,1013.72
2018-10-15T08:00:44.860Z,1013.70
2018-10-15T08:01:44.840Z,1013.66
2018-10-15T08:02:44.818Z,1013.66
2018-10-15T08:03:44.797Z,1013.70
2018-10-15T08:04:44.777Z,1013.72
2018-10-15T08:05:44.818Z,1013.68
2018-10-15T08:06:44.736Z,1013.74
2018-10-15T08:07:44.715Z,1013.71
2018-10-15T08:08:44.774Z,1013.73
2018-10-15T08:09:44.677Z,1013.74
2018-10-15T08:10:44.656Z,1013.73
2018-10-15T08:11:44.635Z,1013.77
2018-10-15T08:12:44.614Z,1013.79
2018-10-15T08:13:44.596Z,1013.77
2018-10-15T08:14:44.619Z,1013.72
2018-10-15T08:15:44.804Z,1013.76
2018-10-15T08:16:44.538Z,1013.68
2018-10-15T08:17:44.519Z,1013.74
2018-10-15T08:18:44.511Z,1013.70
2018-10-15T08:19:44.478Z,1013.71
2018-10-15T08:20:44.474Z,1013.70
2018-10-15T08:21:44.439Z,1013.69
2018-10-15T08:22:44.424Z,1013.65
2018-10-15T08:23:44.401Z,1013.65
2018-10-15T08:24:44.382Z,1013.63
2018-10-15T08:25:44.363Z,1013.65
2018-10-15T08:26:44.343Z,1013.65
2018-10-15T08:27:44.322Z,1013.67
2018-10-15T08:28:44.305Z,1013.68
2018-10-15T08:29:44.286Z,1013.74
2018-10-15T08:30:44.267Z,1013.74
2018-10-15T08:31:44.248Z,1013.76
2018-10-15T08:32:44.231Z,1013.81
2018-10-15T08:33:44.209Z,1013.81
2018-10-15T08:34:44.205Z,1013.77
2018-10-15T08:35:44.171Z,1013.78
2018-10-15T08:36:44.153Z,1013.76
2018-10-15T08:37:44.182Z,1013.73
2018-10-15T08:38:44.118Z,1013.74
2018-10-15T08:39:44.097Z,1013.72
2018-10-15T08:40:44.080Z,1013.71
2018-10-15T08:41:44.117Z,1013.71
2018-10-15T08:42:44.095Z,1013.73
2018-10-15T08:43:44.021Z,1013.72
2018-10-15T08:44:44.003Z,1013.66
2018-10-15T08:45:44.019Z,1013.63
2018-10-15T08:46:43.966Z,1013.66
2018-10-15T08:47:43.947Z,1013.66
2018-10-15T08:48:43.929Z,1013.62
2018-10-15T08:49:43.924Z,1013.62
2018-10-15T08:50:43.957Z,1013.57
2018-10-15T08:51:43.875Z,1013.58
2018-10-15T08:52:43.955Z,1013.54
2018-10-15T08:53:43.839Z,1013.57
2018-10-15T08:54:43.821Z,1013.54
2018-10-15T08:55:43.849Z,1013.53
2018-10-15T08:56:43.827Z,1013.55
2018-10-15T08:57:43.770Z,1013.49
2018-10-15T08:58:43.748Z,1013.52
2018-10-15T08:59:43.731Z,1013.57
2018-10-15T09:00:43.711Z,1013.56
2018-10-15T09:01:43.749Z,1013.51
2018-10-15T09:02:43.679Z,1013.56
2018-10-15T09:03:43.712Z,1013.56
2018-10-15T09:04:43.664Z,1013.55
2018-10-15T09:05:43.623Z,1013.55
2018-10-15T09:06:43.623Z,1013.54
2018-10-15T09:07:43.718Z,1013.58
2018-10-15T09:08:43.741Z,1013.61
2018-10-15T09:09:43.610Z,1013.57
2018-10-15T09:10:43.576Z,1013.62
2018-10-15T09:11:43.516Z,1013.63
2018-10-15T09:12:43.533Z,1013.65
2018-10-15T09:13:43.485Z,1013.66
2018-10-15T09:14:43.517Z,1013.70
2018-10-15T09:15:43.513Z,1013.70
2018-10-15T09:16:43.432Z,1013.71
2018-10-15T09:17:43.481Z,1013.72
2018-10-15T09:18:43.446Z,1013.70
2018-10-15T09:19:43.419Z,1013.76
2018-10-15T09:20:43.366Z,1013.67
2018-10-15T09:21:43.355Z,1013.70
2018-10-15T09:22:43.328Z,1013.68
2018-10-15T09:23:43.329Z,1013.65
2018-10-15T09:24:43.331Z,1013.66
2018-10-15T09:25:43.282Z,1013.62
2018-10-15T09:26:43.339Z,1013.62
2018-10-15T09:27:43.398Z,1013.65
2018-10-15T09:28:43.227Z,1013.63
2018-10-15T09:29:43.260Z,1013.63
2018-10-15T09:30:43.206Z,1013.68
2018-10-15T09:31:43.182Z,1013.65
2018-10-15T09:32:43.198Z,1013.67
2018-10-15T09:33:43.147Z,1013.66
2018-10-15T09:34:43.134Z,1013.66
2018-10-15T09:35:43.116Z,1013.66
2018-10-15T09:36:43.149Z,1013.67
2018-10-15T09:37:43.122Z,1013.64
2018-10-15T09:38:43.189Z,1013.61
2018-10-15T09:39:43.048Z,1013.66
2018-10-15T09:40:43.039Z,1013.64
2018-10-15T09:41:43.023Z,1013.62
2018-10-15T09:42:43.028Z,1013.62
2018-10-15T09:43:42.997Z,1013.62
2018-10-15T09:44:42.972Z,1013.62
2018-10-15T09:45:43.027Z,1013.59
2018-10-15T09:46:42.991Z,1013.56
2018-10-15T09:47:42.921Z,1013.59
2018-10-15T09:48:42.918Z,1013.53
2018-10-15T09:49:42.900Z,1013.56
2018-10-15T09:50:42.960Z,1013.56
2018-10-15T09:51:42.856Z,1013.59
2018-10-15T09:52:42.874Z,1013.58
2018-10-15T09:53:42.826Z,1013.57
2018-10-15T09:54:42.834Z,1013.59
2018-10-15T09:55:42.793Z,1013.59
2018-10-15T09:56:42.800Z,1013.58
2018-10-15T09:57:42.763Z,1013.60
2018-10-15T09:58:42.749Z,1013.62
2018-10-15T09:59:42.731Z,1013.61
2018-10-15T10:00:42.716Z,1013.62
2018-10-15T10:01:42.700Z,1013.64
2018-10-15T10:02:42.697Z,1013.60
2018-10-15T10:03:42.675Z,1013.62
2018-10-15T10:04:42.699Z,1013.65
2018-10-15T10:05:42.637Z,1013.67
2018-10-15T10:06:42.635Z,1013.67
2018-10-15T10:07:42.612Z,1013.73
2018-10-15T10:08:42.639Z,1013.71
2018-10-15T10:09:42.572Z,1013.71
2018-10-15T10:10:42.609Z,1013.71
2018-10-15T10:11:42.541Z,1013.71
2018-10-15T10:12:42.608Z,1013.69
2018-10-15T10:13:42.510Z,1013.70
2018-10-15T10:14:42.514Z,1013.67
2018-10-15T10:15:42.479Z,1013.69
2018-10-15T10:16:42.476Z,1013.73
2018-10-15T10:17:42.651Z,1013.72
2018-10-15T10:18:42.474Z,1013.70
2018-10-15T10:19:42.432Z,1013.68
2018-10-15T10:20:42.404Z,1013.71
2018-10-15T10:21:42.403Z,1013.67
2018-10-15T10:22:42.429Z,1013.67
2018-10-15T10:23:42.363Z,1013.66
2018-10-15T10:24:42.366Z,1013.66
2018-10-15T10:25:42.362Z,1013.66
2018-10-15T10:26:42.321Z,1013.66
2018-10-15T10:27:42.288Z,1013.60
2018-10-15T10:28:42.498Z,1013.61
2018-10-15T10:29:42.261Z,1013.58
2018-10-15T10:30:42.272Z,1013.57
2018-10-15T10:31:42.227Z,1013.52
2018-10-15T10:32:42.445Z,1013.57
2018-10-15T10:33:42.319Z,1013.51
2018-10-15T10:34:42.185Z,1013.47
2018-10-15T10:35:42.200Z,1013.44
2018-10-15T10:36:42.161Z,1013.44
2018-10-15T10:37:42.130Z,1013.44
2018-10-15T10:38:42.122Z,1013.43
2018-10-15T10:39:42.150Z,1013.46
2018-10-15T10:40:42.084Z,1013.45
2018-10-15T10:41:42.141Z,1013.44
2018-10-15T10:42:42.067Z,1013.43
2018-10-15T10:43:42.035Z,1013.44
2018-10-15T10:44:42.031Z,1013.44
2018-10-15T10:45:42.106Z,1013.41
2018-10-15T10:46:41.988Z,1013.41
2018-10-15T10:47:41.972Z,1013.39
2018-10-15T10:48:41.964Z,1013.37
2018-10-15T10:49:41.955Z,1013.38
2018-10-15T10:50:41.927Z,1013.36
2018-10-15T10:51:41.909Z,1013.33
2018-10-15T10:52:41.893Z,1013.33
2018-10-15T10:53:41.877Z,1013.31
2018-10-15T10:54:41.861Z,1013.30
2018-10-15T10:55:41.846Z,1013.33
2018-10-15T10:56:41.829Z,1013.27
2018-10-15T10:57:41.814Z,1013.31
2018-10-15T10:58:41.870Z,1013.29
2018-10-15T10:59:41.780Z,1013.28
2018-10-15T11:00:41.763Z,1013.25
2018-10-15T11:01:41.751Z,1013.24
2018-10-15T11:02:41.790Z,1013.28
2018-10-15T11:03:41.716Z,1013.28
2018-10-15T11:04:41.699Z,1013.26
2018-10-15T11:05:41.754Z,1013.29
2018-10-15T11:06:41.666Z,1013.28
2018-10-15T11:07:41.651Z,1013.26
2018-10-15T11:08:41.771Z,1013.24
2018-10-15T11:09:41.618Z,1013.26
2018-10-15T11:10:41.603Z,1013.28
2018-10-15T11:11:41.585Z,1013.27
2018-10-15T11:12:41.607Z,1013.31
2018-10-15T11:13:41.554Z,1013.31
2018-10-15T11:14:41.541Z,1013.32
2018-10-15T11:15:41.521Z,1013.32
2018-10-15T11:16:41.504Z,1013.35
2018-10-15T11:17:41.490Z,1013.33
2018-10-15T11:18:41.600Z,1013.38
2018-10-15T11:19:41.456Z,1013.39
2018-10-15T11:20:41.441Z,1013.40
2018-10-15T11:21:41.424Z,1013.37
2018-10-15T11:22:41.418Z,1013.35
2018-10-15T11:23:41.394Z,1013.38
2018-10-15T11:24:41.378Z,1013.36
2018-10-15T11:25:41.362Z,1013.34
2018-10-15T11:26:41.347Z,1013.34
2018-10-15T11:27:41.329Z,1013.32
2018-10-15T11:28:41.314Z,1013.29
2018-10-15T11:29:41.329Z,1013.30
2018-10-15T11:30:41.284Z,1013.34
2018-10-15T11:31:41.268Z,1013.33
2018-10-15T11:32:41.252Z,1013.35
2018-10-15T11:33:41.234Z,1013.32
2018-10-15T11:34:41.299Z,1013.32
2018-10-15T11:35:41.203Z,1013.36
2018-10-15T11:36:41.190Z,1013.36
2018-10-15T11:37:41.175Z,1013.35
2018-10-15T11:38:41.157Z,1013.38
2018-10-15T11:39:41.139Z,1013.34
2018-10-15T11:40:41.126Z,1013.33
2018-10-15T11:41:41.108Z,1013.32
2018-10-15T11:42:41.094Z,1013.34
2018-10-15T11:43:41.106Z,1013.38
2018-10-15T11:44:41.061Z,1013.41
2018-10-15T11:45:41.048Z,1013.40
2018-10-15T11:46:41.077Z,1013.35
2018-10-15T11:47:41.017Z,1013.40
2018-10-15T11:48:40.999Z,1013.37
2018-10-15T11:49:41.004Z,1013.37
2018-10-15T11:50:40.968Z,1013.39
2018-10-15T11:51:40.951Z,1013.36
2018-10-15T11:52:40.936Z,1013.33
2018-10-15T11:53:40.975Z,1013.30
2018-10-15T11:54:40.905Z,1013.33
2018-10-15T11:55:40.893Z,1013.31
2018-10-15T11:56:40.873Z,1013.29
2018-10-15T11:57:40.858Z,1013.30
2018-10-15T11:58:40.870Z,1013.32
2018-10-15T11:59:40.824Z,1013.26
2018-10-15T12:00:40.808Z,1013.26
2018-10-15T12:01:40.793Z,1013.28
2018-10-15T12:02:40.859Z,1013.26
2018-10-15T12:03:40.760Z,1013.25
2018-10-15T12:04:40.745Z,1013.27
2018-10-15T12:05:40.730Z,1013.29